Tiempo atmosférico en la estación meteorológica de Alfaro, La Rioja (285 m.)

Fecha
DESCASC
Temp. máxima en grados centígrados (hora)
DESCASC
Temp. mínima en grados centígrados (hora)
DESCASC
Temp. media en grados centígrados
DESCASC
Racha de viento máxima en m/sg (hora)
DESCASC
Velocidad máxima media en intervalos de 10 minutos(hora)
DESCASC
Precipitaciones diarias en mm
DESCASC
Precipitaciones de 00:00 a 06:00 en mm
DESCASC
Precipitaciones de 06:00 a 12:00 en mm
DESCASC
Precipitaciones de 12:00 a 18:00 en mm
DESCASC
Precipitaciones de 18:00 a 24:00 en mm
DESCASC
10-12-2017 14.8 (16:30) 2.8 (07:20) 8.8 15.28 (22:20) 9.72 (14:00) 0 0 0 0 0
09-12-2017 11.7 (13:30) 5.1 (23:59) 8.4 7.22 (03:10) 4.72 (11:40) 0.4 0 0 0 0.4
08-12-2017 12.3 (15:00) -0.9 (05:00) 5.7 10.83 (15:00) 6.11 (14:20) 0 0 0 0 0
07-12-2017 7 (15:10) -5.7 (-00:0) 0.7 3.33 (19:40) 2.22 (19:40) 0 0 0 0 0
06-12-2017 8.1 (16:50) -6 (-00:0) 1.1 1.94 (14:30) 1.39 (18:40) 0 0 0 0 0
05-12-2017 11.4 (16:10) -3.8 (-00:0) 3.8 3.89 (06:00) 2.5 (01:30) 0 0 0 0 0
04-12-2017 12.2 (15:10) 3.4 (00:00) 7.8 10.56 (16:30) 7.22 (13:30) 0 0 0 0 0
03-12-2017 8.3 (14:10) 0.5 (00:00) 4.4 13.89 (13:00) 8.61 (11:20) 0 0 0 0 0
02-12-2017 5.7 (15:00) 0 (00:00) 2.8 12.78 (13:40) 7.78 (13:40) 3.6 3.4 0.2 0 0
01-12-2017 6.5 (02:30) 0.6 (00:00) 3.6 15.83 (09:30) 8.89 (09:30) 2.6 0 2.6 0 0
30-11-2017 9.7 (14:30) -0.2 (00:00) 4.7 10.28 (14:10) 6.94 (14:10) 0 0 0 0 0
29-11-2017 10.6 (13:40) -0.5 (-00:0) 5.1 11.67 (16:10) 7.22 (16:20) 0.2 0 0 0.2 0
28-11-2017 11.9 (15:30) -6.5 (-00:0) 2.7 4.17 (14:00) 2.5 (13:40) 0 0 0 0 0
27-11-2017 10.4 (15:10) -3.7 (-00:0) 3.3 4.72 (02:00) 3.33 (04:20) 0 0 0 0 0
26-11-2017 12.1 (13:10) 2.5 (00:00) 7.3 10.83 (13:20) 6.94 (14:50) 0 0 0 0 0
25-11-2017 12.2 (13:20) 3.5 (00:00) 7.8 11.67 (13:50) 7.22 (13:20) 1.6 1.6 0 0 0
24-11-2017 14.9 (01:00) 8.8 (00:00) 11.8 10.28 (00:30) 8.06 (00:40) 0.2 0 0 0.2 0
23-11-2017 17.9 (14:10) 7.4 (00:00) 12.6 11.11 (02:20) 7.78 (23:59) 0 0 0 0 0
22-11-2017 15 (16:00) -5.5 (-00:0) 4.8 9.44 (22:20) 6.67 (22:20) 0 0 0 0 0
21-11-2017 16.7 (15:50) -5.1 (-00:0) 5.8 2.78 (17:10) 2.22 (17:10) 0 0 0 0 0
20-11-2017 -- (--) -- (--) -- -- (--) -- (--) -- 0 -- -- 0
19-11-2017 18 (15:10) -0.2 (00:00) 8.9 8.06 (15:10) 5.28 (17:00) 0 0 0 0 0
18-11-2017 17 (14:20) 5.8 (00:00) 11.4 12.22 (14:10) 7.5 (13:20) 0 0 0 0 0
17-11-2017 20.1 (15:30) -0.7 (-00:0) 9.7 8.61 (23:00) 5.28 (22:50) 0 0 0 0 0
16-11-2017 16.2 (16:20) -4.8 (-00:0) 5.7 -- (--) -- (--) 0 0 0 0 0
15-11-2017 15.9 (15:50) -3.4 (-00:0) 6.2 6.11 (00:40) 4.17 (01:30) 0 0 0 0 0

Gráficas

Temp. máximas Temp. mínimas Temp. medias Precipitaciones Rachas de viento máximas Velocidades máximas media en intervalos de 10 minutos

Datos horarios

Fecha y hora oficial Temperatura (ºC) Velocidad del viento (km/h) Dirección del viento Racha (km/h) Dirección de racha Precipitación (mm) Presión (hPa) Tendencia (hPa) Humedad (%)
2017-12-14 23:00:00 7.7 5 Noroeste 10 Noroeste 0 -- -- 100
2017-12-14 22:00:00 8 2 Noroeste 15 Norte 0.4 -- -- 100
2017-12-14 21:00:00 7.4 2 Nordeste 8 Sur 0 -- -- 99
2017-12-14 20:00:00 8 5 Sudoeste 8 Sur 0 -- -- 99
2017-12-14 19:00:00 7.8 3 Este 11 Sur 0 -- -- 98
2017-12-14 18:00:00 9.1 8 Sur 12 Sur 0 -- -- 97
2017-12-14 17:00:00 10.1 5 Sur 11 Sudeste 0.2 -- -- 96
2017-12-14 16:00:00 10.6 6 Sudeste 9 Sudeste 0 -- -- 96
2017-12-14 15:00:00 10.5 3 Norte 9 Norte 0 -- -- 98
2017-12-14 14:00:00 10.3 7 Nordeste 13 Este 0 -- -- 99
2017-12-14 13:00:00 10.2 4 Nordeste 10 Este 0 -- -- 100
2017-12-14 12:00:00 8.1 9 Nordeste 12 Este 0.4 -- -- 99
2017-12-14 11:00:00 7.2 6 Nordeste 9 Sur 0 -- -- 100
2017-12-14 10:00:00 5.6 4 Sur 6 Sur 0.6 -- -- 100
2017-12-14 09:00:00 4.6 6 Sudoeste 8 Sudoeste 1.4 -- -- 99
2017-12-14 08:00:00 4.4 0 Calma 5 Norte 1.4 -- -- 98
2017-12-14 07:00:00 4.3 0 Calma 6 Sudoeste 0.6 -- -- 96
2017-12-14 06:00:00 4.1 2 Sudeste 4 Sudeste 0 -- -- 92
2017-12-14 05:00:00 3.7 0 Calma 6 Nordeste 0 -- -- 91
2017-12-14 04:00:00 3.3 0 Calma 8 Sudoeste 0 -- -- 92
2017-12-14 03:00:00 2.4 6 Sur 9 Sur 0 -- -- 94
2017-12-14 02:00:00 1.3 2 Este 10 Sudoeste 0 -- -- 93
2017-12-14 01:00:00 1.1 4 Sudoeste 7 Sudoeste 0 -- -- 88
2017-12-14 00:00:00 2.4 3 Noroeste 5 Noroeste 0 -- -- 88
2017-12-13 23:00:00 3.6 0 Calma 5 Nordeste 0 -- -- 87
2017-12-13 22:00:00 3.6 3 Este 5 Sur 0 -- -- 86
2017-12-13 21:00:00 3.3 2 Sudeste 6 Sudoeste 0 -- -- 85
2017-12-13 20:00:00 2.9 4 Sudoeste 5 Sur 0 -- -- 86
2017-12-13 19:00:00 2.5 0 Calma 6 Sudoeste 0 -- -- 83
2017-12-13 18:00:00 4.4 3 Sudoeste 9 Sudoeste 0 -- -- 72
2017-12-13 17:00:00 6.1 4 Sudoeste 6 Sudoeste 0 -- -- 72
2017-12-13 16:00:00 5.8 0 Calma 3 Sudeste 0 -- -- 73
2017-12-13 15:00:00 5.8 0 Calma 4 Sur 0 -- -- 73
2017-12-13 14:00:00 4.7 2 Este 7 Nordeste 0 -- -- 77
2017-12-13 13:00:00 3.5 0 Calma 5 Noroeste 0 -- -- 82
2017-12-13 12:00:00 2.2 0 Calma 6 Oeste 0 -- -- 92
2017-12-13 11:00:00 0.5 3 Nordeste 9 Nordeste 0 -- -- 97
2017-12-13 10:00:00 -0.9 0 Calma 8 Sur 0 -- -- 99
2017-12-13 09:00:00 -2.7 4 Sur 6 Sur 0 -- -- 98
2017-12-13 08:00:00 -4.3 0 Calma 5 Sur 0 -- -- 98
2017-12-13 07:00:00 -4.7 0 Calma 6 Sur 0 -- -- 97
2017-12-13 06:00:00 -5.5 3 Sudoeste 4 Sudoeste 0 -- -- 94
2017-12-13 05:00:00 -4.8 2 Nordeste 4 Nordeste 0 -- -- 94
2017-12-13 04:00:00 -4.5 0 Calma 4 Sudeste 0 -- -- 93
2017-12-13 03:00:00 -4.1 0 Calma 5 Sudoeste 0 -- -- 91
2017-12-13 02:00:00 -3 0 Calma 7 Noroeste 0 -- -- 90
2017-12-13 01:00:00 -2.3 0 Calma 8 Sudoeste 0 -- -- 89
2017-12-13 00:00:00 -2.3 2 Sur 6 Sudoeste 0 -- -- 86
2017-12-12 23:00:00 -1.1 5 Oeste 9 Sudoeste 0 -- -- 84
2017-12-12 22:00:00 0 5 Sudoeste 8 Sudoeste 0 -- -- 82
2017-12-12 21:00:00 2.6 4 Oeste 10 Oeste 0 -- -- 76
2017-12-12 20:00:00 4.3 9 Noroeste 19 Noroeste 0 -- -- 77
2017-12-12 19:00:00 5.8 14 Noroeste 27 Noroeste 0 -- -- 70
2017-12-12 18:00:00 6.7 15 Norte 24 Noroeste 0 -- -- 70
2017-12-12 17:00:00 9 18 Noroeste 31 Noroeste 0 -- -- 58
2017-12-12 16:00:00 10.6 19 Noroeste 35 Noroeste 0 -- -- 48
2017-12-12 15:00:00 10.8 21 Noroeste 37 Noroeste 0 -- -- 47
2017-12-12 14:00:00 10.5 22 Noroeste 38 Noroeste 0 -- -- 50
2017-12-12 13:00:00 10 24 Noroeste 37 Noroeste 0 -- -- 55
2017-12-12 12:00:00 8.9 17 Norte 31 Noroeste 0 -- -- 62
2017-12-12 11:00:00 6.9 16 Noroeste 26 Noroeste 0 -- -- 70
2017-12-12 10:00:00 4.5 13 Noroeste 21 Noroeste 0 -- -- 80
2017-12-12 09:00:00 1.8 9 Noroeste 21 Norte 0 -- -- 86
2017-12-12 08:00:00 1.7 8 Noroeste 16 Noroeste 0 -- -- 85
2017-12-12 07:00:00 1.5 10 Noroeste 17 Noroeste 0 -- -- 86
2017-12-12 06:00:00 0.8 7 Noroeste 11 Noroeste 0 -- -- 86
2017-12-12 05:00:00 2.8 8 Noroeste 15 Noroeste 0 -- -- 83
2017-12-12 04:00:00 2.8 6 Noroeste 16 Norte 0 -- -- 81
2017-12-12 03:00:00 2.4 3 Oeste 22 Noroeste 0 -- -- 76
2017-12-12 02:00:00 4.4 17 Noroeste 28 Noroeste 0 -- -- 73
2017-12-12 01:00:00 5.5 15 Noroeste 25 Noroeste 0 -- -- 67
2017-12-12 00:00:00 5.6 8 Norte 22 Noroeste 0 -- -- 71
2017-12-11 23:00:00 5.5 8 Noroeste 15 Noroeste 0 -- -- 76
2017-12-11 22:00:00 6 9 Noroeste 24 Noroeste 0 -- -- 73
2017-12-11 21:00:00 6.2 18 Noroeste 42 Noroeste 0 -- -- 74
2017-12-11 20:00:00 7 23 Noroeste 49 Noroeste 0 -- -- 74
2017-12-11 19:00:00 7.7 30 Noroeste 50 Noroeste 0 -- -- 71
2017-12-11 18:00:00 9.2 36 Noroeste 55 Noroeste 0 -- -- 63
2017-12-11 17:00:00 12 26 Oeste 41 Oeste 0 -- -- 41
2017-12-11 16:00:00 12.7 13 Norte 38 Oeste 0 -- -- 50
2017-12-11 15:00:00 12.2 4 Sudeste 12 Nordeste 0 -- -- 58
2017-12-11 14:00:00 11.6 5 Norte 14 Nordeste 0 -- -- 62
2017-12-11 13:00:00 11 6 Norte 13 Norte 0 -- -- 63
2017-12-11 12:00:00 8.9 7 Noroeste 10 Noroeste 0 -- -- 72
2017-12-11 11:00:00 7.2 4 Norte 16 Noroeste 0 -- -- 80
2017-12-11 10:00:00 7.3 8 Noroeste 32 Noroeste 0 -- -- 78
2017-12-11 09:00:00 9.1 15 Noroeste 24 Noroeste 0 -- -- 72
2017-12-11 08:00:00 9.5 12 Oeste 30 Noroeste 0 -- -- 62
2017-12-11 07:00:00 10 9 Sudoeste 31 Oeste 0 -- -- 63
2017-12-11 06:00:00 10.6 25 Sudoeste 41 Sudoeste 0 -- -- 65
2017-12-11 05:00:00 9.8 9 Sudeste 21 Sudoeste 0.2 -- -- 87
2017-12-11 04:00:00 12 13 Norte 59 Oeste 0 -- -- 77
2017-12-11 03:00:00 14.7 16 Sudoeste 76 Sudoeste 0 -- -- 63
2017-12-11 02:00:00 14.7 30 Sudoeste 53 Sudoeste 0 -- -- 62
2017-12-11 01:00:00 14.9 36 Sudoeste 66 Sudoeste 0 -- -- 61
2017-12-11 00:00:00 14.7 24 Sudeste 43 Sudeste 0 -- -- 61
2017-12-10 23:00:00 14.5 28 Sudeste 55 Sudoeste 0 -- -- 65
2017-12-10 22:00:00 14.5 24 Sur 42 Sur 0 -- -- 65
2017-12-10 21:00:00 14.1 23 Sur 37 Sur -- -- -- 68
2017-12-10 20:00:00 14 19 Sur 48 Sudeste 0 -- -- 67
2017-12-10 19:00:00 13.5 26 Sur 39 Sur 0 -- -- 69
2017-12-10 18:00:00 13.9 21 Sur 33 Sur 0 -- -- 67
2017-12-10 17:00:00 14.7 18 Sur 36 Sudoeste 0 -- -- 65
2017-12-10 16:00:00 14.6 20 Sur 43 Sudoeste 0 -- -- 65
2017-12-10 15:00:00 14.1 21 Sur 44 Sur 0 -- -- 66
2017-12-10 14:00:00 14 35 Sudoeste 54 Sudoeste 0 -- -- 70
2017-12-10 13:00:00 8 8 Noroeste 32 Sudoeste 0 -- -- 100
2017-12-10 12:00:00 6.2 7 Nordeste 10 Nordeste 0 -- -- 98
2017-12-10 11:00:00 5.5 2 Norte 7 Noroeste 0 -- -- 99
2017-12-10 10:00:00 4.3 0 Calma 5 Norte 0 -- -- 99
2017-12-10 09:00:00 3.5 2 Noroeste 8 Sudeste 0 -- -- 99
2017-12-10 08:00:00 2.8 4 Sudoeste 8 Sudoeste 0 -- -- 99
2017-12-10 07:00:00 3.1 3 Sudoeste 5 Noroeste 0 -- -- 98
2017-12-10 06:00:00 3.1 3 Oeste 5 Sudoeste 0 -- -- 98
2017-12-10 05:00:00 3.5 0 Calma 4 Nordeste 0 -- -- 98
2017-12-10 04:00:00 3.2 0 Calma 5 Sudeste 0 -- -- 97
2017-12-10 03:00:00 3.4 5 Sur 9 Sur 0 -- -- 97
2017-12-10 02:00:00 3.2 4 Sur 7 Sur 0 -- -- 96
2017-12-10 01:00:00 3.6 4 Sudoeste 7 Sur 0 -- -- 93
2017-12-10 00:00:00 5.1 0 Calma 7 Este 0 -- -- 93
2017-12-09 23:00:00 6.1 4 Sudeste 7 Sur 0 -- -- 93
2017-12-09 22:00:00 6.5 6 Sur 13 Sudoeste 0 -- -- 92
2017-12-09 21:00:00 6.7 2 Noroeste 3 Noroeste 0 -- -- 93
2017-12-09 20:00:00 6.7 3 Noroeste 11 Este 0 -- -- 91
2017-12-09 19:00:00 7.4 3 Nordeste 8 Sudeste 0.4 -- -- 88
2017-12-09 18:00:00 8.2 6 Sudeste 8 Este 0 -- -- 82
2017-12-09 17:00:00 9.4 6 Nordeste 10 Nordeste 0 -- -- 70
2017-12-09 16:00:00 10.1 4 Nordeste 16 Norte 0 -- -- 66
2017-12-09 15:00:00 10.4 12 Norte 20 Norte 0 -- -- 62
2017-12-09 14:00:00 11.2 10 Norte 21 Noroeste 0 -- -- 59
2017-12-09 13:00:00 11.1 10 Norte 23 Norte 0 -- -- 59
2017-12-09 12:00:00 10.1 14 Noroeste 26 Noroeste 0 -- -- 63
2017-12-09 11:00:00 9 14 Noroeste 24 Noroeste 0 -- -- 74
2017-12-09 10:00:00 7 8 Noroeste 16 Noroeste 0 -- -- 83
2017-12-09 09:00:00 5.5 7 Noroeste 16 Noroeste 0 -- -- 88
2017-12-09 08:00:00 6.3 10 Noroeste 24 Oeste 0 -- -- 83
2017-12-09 07:00:00 6.3 12 Noroeste 20 Noroeste 0 -- -- 83
2017-12-09 06:00:00 6.8 9 Noroeste 23 Noroeste 0 -- -- 85
2017-12-09 05:00:00 7.1 11 Noroeste 22 Noroeste 0 -- -- 82
2017-12-09 04:00:00 7.1 8 Noroeste 26 Noroeste 0 -- -- 82
2017-12-09 03:00:00 6.9 10 Noroeste 18 Noroeste 0 -- -- 86
2017-12-09 02:00:00 7.3 10 Noroeste 23 Noroeste 0 -- -- 84
2017-12-09 01:00:00 7.3 12 Noroeste 17 Noroeste 0 -- -- 86
2017-12-09 00:00:00 8 11 Noroeste 21 Noroeste 0 -- -- 82
2017-12-08 23:00:00 8.3 11 Noroeste 18 Noroeste 0 -- -- 81
2017-12-08 22:00:00 8.5 10 Noroeste 24 Noroeste 0 -- -- 81
2017-12-08 21:00:00 8.9 7 Noroeste 17 Norte 0 -- -- 84
2017-12-08 20:00:00 9.3 10 Noroeste 18 Noroeste 0 -- -- 84
2017-12-08 19:00:00 9.8 9 Noroeste 23 Noroeste 0 -- -- 82
2017-12-08 18:00:00 10.2 10 Noroeste 27 Noroeste 0 -- -- 79
2017-12-08 17:00:00 11 15 Noroeste 31 Noroeste 0 -- -- 75
2017-12-08 16:00:00 11.8 18 Noroeste 35 Noroeste 0 -- -- 72
2017-12-08 15:00:00 12.3 19 Noroeste 39 Noroeste 0 -- -- 71
2017-12-08 14:00:00 12 19 Noroeste 31 Noroeste 0 -- -- 72
2017-12-08 13:00:00 8.1 3 Sudoeste 7 Sudoeste 0 -- -- 82
2017-12-08 12:00:00 7 0 Calma 5 Nordeste 0 -- -- 81
2017-12-08 11:00:00 5.1 2 Norte 3 Nordeste 0 -- -- 91
2017-12-08 10:00:00 3.1 0 Calma 2 Sur 0 -- -- 98
2017-12-08 09:00:00 1.9 0 Calma 5 Oeste 0 -- -- 99
2017-12-08 08:00:00 1 0 Calma 5 Sudoeste 0 -- -- 99
2017-12-08 07:00:00 0.4 2 Sudoeste 4 Sur 0 -- -- 98
2017-12-08 06:00:00 -0.7 0 Calma 4 Oeste 0 -- -- 98
2017-12-08 05:00:00 -0.9 0 Calma 4 Sudoeste 0 -- -- 97
2017-12-08 04:00:00 -0.2 0 Calma 5 Oeste 0 -- -- 97
2017-12-08 03:00:00 -0.6 0 Calma 8 Sur 0 -- -- 95
2017-12-08 02:00:00 -0.2 0 Calma 6 Sur 0 -- -- 93
2017-12-08 01:00:00 1.4 0 Calma 5 Sudeste 0 -- -- 93
2017-12-08 00:00:00 2 0 Calma 3 Noroeste 0 -- -- 95
2017-12-07 23:00:00 1 0 Calma 4 Oeste 0 -- -- 92
2017-12-07 22:00:00 2 0 Calma 7 Oeste 0 -- -- 89
2017-12-07 21:00:00 3.3 0 Calma 6 Norte 0 -- -- 88
2017-12-07 20:00:00 4.2 3 Nordeste 12 Sudeste 0 -- -- 83
2017-12-07 19:00:00 4.8 4 Sudeste 6 Sudeste 0 -- -- 83
2017-12-07 18:00:00 5.6 4 Sudoeste 5 Sur 0 -- -- 77
2017-12-07 17:00:00 6.2 0 Calma 8 Norte 0 -- -- 74
2017-12-07 16:00:00 6.7 6 Norte 9 Nordeste 0 -- -- 72
2017-12-07 15:00:00 6.8 3 Este 9 Este 0 -- -- 73
2017-12-07 14:00:00 5.3 2 Este 5 Sudeste 0 -- -- 79
2017-12-07 13:00:00 3.5 2 Norte 6 Noroeste 0 -- -- 89
2017-12-07 12:00:00 1.2 3 Nordeste 10 Norte 0 -- -- 99
2017-12-07 11:00:00 0.3 3 Nordeste 6 Este 0 -- -- 100
2017-12-07 10:00:00 -1.3 2 Este 4 Este 0 -- -- 100
2017-12-07 09:00:00 -2.8 3 Sudoeste 4 Sudoeste 0 -- -- 99
2017-12-07 08:00:00 -3.7 0 Calma 2 Noroeste 0 -- -- 99
2017-12-07 07:00:00 -4.5 2 Sudeste 2 Sudeste 0 -- -- 98
2017-12-07 06:00:00 -4.8 0 Calma -- -- 0 -- -- 97
2017-12-07 05:00:00 -4.9 0 Calma 2 Sudeste 0 -- -- 97
2017-12-07 04:00:00 -4.9 0 Calma 3 Norte 0 -- -- 97
2017-12-07 03:00:00 -5 0 Calma 4 Sur 0 -- -- 97
2017-12-07 02:00:00 -5.3 3 Sudoeste 5 Sudoeste 0 -- -- 96
2017-12-07 01:00:00 -5.6 0 Calma -- -- 0 -- -- 95
2017-12-07 00:00:00 -5.2 2 Sudoeste 4 Sur 0 -- -- 95
2017-12-06 23:00:00 -4.9 2 Sudoeste 3 Sudoeste 0 -- -- 92
2017-12-06 22:00:00 -3.7 2 Sudoeste 4 Sur 0 -- -- 93
2017-12-06 21:00:00 -2.9 3 Sur 6 Sur 0 -- -- 91
2017-12-06 20:00:00 -1.7 3 Sur 5 Sur 0 -- -- 89
2017-12-06 19:00:00 0.3 3 Sudoeste 6 Sudoeste 0 -- -- 82
2017-12-06 18:00:00 4.7 0 Calma 0 Calma 0 -- -- 69
2017-12-06 17:00:00 8 0 Calma 2 Sur 0 -- -- 65
2017-12-06 16:00:00 7 0 Calma 5 Norte 0 -- -- 70
2017-12-06 15:00:00 6.1 2 Norte 7 Norte 0 -- -- 75
2017-12-06 14:00:00 4.2 3 Nordeste 6 Nordeste 0 -- -- 94
2017-12-06 13:00:00 1.3 0 Calma 4 Norte 0 -- -- 100
2017-12-06 12:00:00 -0.1 0 Calma 3 Nordeste 0 -- -- 100
2017-12-06 11:00:00 -1.6 0 Calma 3 Oeste 0 -- -- 100
2017-12-06 10:00:00 -2.8 0 Calma 2 Sudoeste 0 -- -- 100
2017-12-06 09:00:00 -4.2 0 Calma 2 Sudoeste 0 -- -- 100
2017-12-06 08:00:00 -4.3 0 Calma -- -- 0 -- -- 99
2017-12-06 07:00:00 -5.1 0 Calma 2 Noroeste 0 -- -- 99
2017-12-06 06:00:00 -5.7 0 Calma 2 Sudoeste 0 -- -- 97
2017-12-06 05:00:00 -6 2 Sur 2 Sur 0 -- -- 95
2017-12-06 04:00:00 -5.4 0 Calma 3 Sudoeste 0 -- -- 96
2017-12-06 03:00:00 -5 2 Sur -- -- 0 -- -- 95
2017-12-06 02:00:00 -4.8 2 Sudoeste 3 Sudoeste 0 -- -- 95
2017-12-06 01:00:00 -4.3 2 Sudoeste 4 Sudoeste 0 -- -- 94
2017-12-06 00:00:00 -3.8 3 Sudoeste 3 Sudoeste 0 -- -- 93
2017-12-05 23:00:00 -3.1 0 Calma 3 Sudoeste 0 -- -- 91
2017-12-05 22:00:00 -2.3 3 Sur 5 Sudoeste 0 -- -- 88
2017-12-05 21:00:00 -0.4 2 Sudeste 6 Sur 0 -- -- 90
2017-12-05 20:00:00 0.5 4 Sur 8 Sur 0 -- -- 84
2017-12-05 19:00:00 2.6 3 Sudoeste 8 Oeste 0 -- -- 77
2017-12-05 18:00:00 7.5 2 Sur -- -- 0 -- -- 63
2017-12-05 17:00:00 10.2 2 Nordeste 9 Noroeste 0 -- -- 57
2017-12-05 16:00:00 11.2 2 Noroeste 9 Norte 0 -- -- 54
2017-12-05 15:00:00 10.5 6 Norte 12 Nordeste 0 -- -- 55
2017-12-05 14:00:00 10.3 6 Noroeste 13 Noroeste 0 -- -- 57
2017-12-05 13:00:00 9.1 5 Noroeste 12 Noroeste 0 -- -- 64
2017-12-05 12:00:00 7.5 5 Noroeste 13 Noroeste 0 -- -- 73
2017-12-05 11:00:00 4.8 6 Noroeste 12 Noroeste 0 -- -- 87
2017-12-05 10:00:00 1.1 2 Oeste 8 Sudoeste 0 -- -- 99
2017-12-05 09:00:00 -3.2 6 Sudoeste 9 Sudoeste 0 -- -- 97
2017-12-05 08:00:00 -2.6 4 Sudoeste 10 Sudoeste 0 -- -- 97
2017-12-05 07:00:00 -2.3 3 Sudoeste 14 Oeste 0 -- -- 97
2017-12-05 06:00:00 0.5 8 Noroeste 14 Noroeste 0 -- -- 99
2017-12-05 05:00:00 -0.3 7 Noroeste 11 Noroeste 0 -- -- 99
2017-12-05 04:00:00 -0.1 6 Noroeste 12 Noroeste 0 -- -- 99
2017-12-05 03:00:00 0.1 6 Noroeste 11 Noroeste 0 -- -- 98
2017-12-05 02:00:00 1.1 6 Noroeste 12 Noroeste 0 -- -- 96
2017-12-05 01:00:00 2.1 6 Noroeste 13 Noroeste 0 -- -- 95
2017-12-05 00:00:00 3.4 9 Noroeste 19 Noroeste 0 -- -- 95
2017-12-04 23:00:00 3.7 12 Noroeste 18 Noroeste 0 -- -- 95
2017-12-04 22:00:00 4.4 12 Noroeste 19 Noroeste 0 -- -- 94
2017-12-04 21:00:00 4.4 8 Noroeste 13 Noroeste 0 -- -- 92
2017-12-04 20:00:00 5.5 10 Noroeste 15 Noroeste 0 -- -- 88
2017-12-04 19:00:00 7.1 10 Noroeste 22 Noroeste 0 -- -- 80
2017-12-04 18:00:00 8.6 14 Noroeste 32 Noroeste 0 -- -- 72
2017-12-04 17:00:00 10.5 18 Noroeste 38 Noroeste 0 -- -- 64
2017-12-04 16:00:00 11 21 Noroeste 36 Noroeste 0 -- -- 62
2017-12-04 15:00:00 11.8 22 Noroeste 36 Noroeste 0 -- -- 62
2017-12-04 14:00:00 10.6 24 Noroeste 37 Noroeste 0 -- -- 69
2017-12-04 13:00:00 11.3 21 Noroeste 35 Noroeste 0 -- -- 64
2017-12-04 12:00:00 11.4 18 Noroeste 32 Noroeste 0 -- -- 65
2017-12-04 11:00:00 10.2 16 Noroeste 27 Noroeste 0 -- -- 71
2017-12-04 10:00:00 6.8 9 Noroeste 23 Noroeste 0 -- -- 87
2017-12-04 09:00:00 5.1 13 Noroeste 23 Noroeste 0 -- -- 93
2017-12-04 08:00:00 4.3 12 Noroeste 20 Noroeste 0 -- -- 96
2017-12-04 07:00:00 3.7 9 Noroeste 23 Noroeste 0 -- -- 95
2017-12-04 06:00:00 3.7 9 Noroeste 18 Noroeste 0 -- -- 93
2017-12-04 05:00:00 4.2 9 Noroeste 21 Noroeste 0 -- -- 90
2017-12-04 04:00:00 4.9 13 Noroeste 27 Noroeste 0 -- -- 88
2017-12-04 03:00:00 4.6 14 Norte 24 Noroeste 0 -- -- 89
2017-12-04 02:00:00 4.4 6 Noroeste 18 Norte 0 -- -- 88
2017-12-04 01:00:00 5.2 10 Noroeste 20 Noroeste 0 -- -- 84
2017-12-04 00:00:00 5 12 Noroeste 31 Noroeste 0 -- -- 83
2017-12-03 23:00:00 4.4 18 Noroeste 29 Noroeste 0 -- -- 84
2017-12-03 22:00:00 4.8 14 Noroeste 27 Noroeste 0 -- -- 81
2017-12-03 21:00:00 5.4 17 Noroeste 30 Norte 0 -- -- 77
2017-12-03 20:00:00 4.9 13 Norte 21 Norte 0 -- -- 80
2017-12-03 19:00:00 5.2 14 Noroeste 32 Noroeste 0 -- -- 75
2017-12-03 18:00:00 5.1 11 Noroeste 28 Noroeste 0 -- -- 72
2017-12-03 17:00:00 7.1 19 Noroeste 42 Noroeste 0 -- -- 62
2017-12-03 16:00:00 7.9 24 Noroeste 39 Noroeste 0 -- -- 55
2017-12-03 15:00:00 7.8 23 Noroeste 39 Noroeste 0 -- -- 55
2017-12-03 14:00:00 8.2 20 Noroeste 49 Noroeste 0 -- -- 49
2017-12-03 13:00:00 7.4 30 Noroeste 50 Noroeste 0 -- -- 48
2017-12-03 12:00:00 6.4 24 Noroeste 48 Noroeste 0 -- -- 46
2017-12-03 11:00:00 5.4 26 Noroeste 44 Noroeste 0 -- -- 53
2017-12-03 10:00:00 3.5 22 Noroeste 35 Noroeste 0 -- -- 62
2017-12-03 09:00:00 1.1 16 Noroeste 31 Norte 0 -- -- 74
2017-12-03 08:00:00 1 15 Noroeste 36 Noroeste 0 -- -- 72
2017-12-03 07:00:00 1 21 Noroeste 33 Noroeste 0 -- -- 73
2017-12-03 06:00:00 0.5 16 Norte 32 Noroeste 0 -- -- 81
2017-12-03 05:00:00 0.9 22 Norte 35 Noroeste 0 -- -- 81
2017-12-03 04:00:00 1.1 21 Noroeste 35 Noroeste 0 -- -- 80
2017-12-03 03:00:00 0.5 14 Noroeste 20 Norte 0 -- -- 84
2017-12-03 02:00:00 1.4 14 Noroeste 34 Norte 0 -- -- 78
2017-12-03 01:00:00 2.2 21 Noroeste 39 Noroeste 0 -- -- 73
2017-12-03 00:00:00 1.1 14 Noroeste 31 Norte 0 -- -- 88
2017-12-02 23:00:00 1.4 16 Norte 32 Norte 0 -- -- 83
2017-12-02 22:00:00 1.5 16 Noroeste 34 Norte 0 -- -- 85
2017-12-02 21:00:00 1.5 11 Noroeste 33 Noroeste 0 -- -- 85
2017-12-02 20:00:00 1.9 18 Noroeste 34 Noroeste 0 -- -- 83
2017-12-02 19:00:00 2.6 19 Noroeste 40 Noroeste 0 -- -- 79
2017-12-02 18:00:00 3.2 23 Noroeste 37 Noroeste 0 -- -- 77
2017-12-02 17:00:00 4.4 24 Noroeste 41 Noroeste 0 -- -- 74
2017-12-02 16:00:00 5.1 23 Noroeste 43 Norte 0 -- -- 73
2017-12-02 15:00:00 5.7 24 Noroeste 42 Norte 0 -- -- 74
2017-12-02 14:00:00 4.5 22 Norte 46 Noroeste 0 -- -- 74
2017-12-02 13:00:00 4.8 17 Norte 36 Noroeste 0 -- -- 73
2017-12-02 12:00:00 4.9 22 Norte 36 Noroeste 0 -- -- 74
2017-12-02 11:00:00 4.1 20 Noroeste 31 Noroeste 0 -- -- 79
2017-12-02 10:00:00 2.8 9 Norte 15 Norte 0 -- -- 96
2017-12-02 09:00:00 0.6 9 Noroeste 15 Noroeste 0 -- -- 99
2017-12-02 08:00:00 0 5 Noroeste 13 Noroeste 0 -- -- 99
2017-12-02 07:00:00 1.2 10 Norte 19 Norte 0.2 -- -- 98
2017-12-02 06:00:00 0.6 9 Norte 15 Noroeste 0 -- -- 99
2017-12-02 05:00:00 1.3 9 Noroeste 31 Noroeste 0 -- -- 98
2017-12-02 04:00:00 2 12 Noroeste 33 Noroeste 0.4 -- -- 98
2017-12-02 03:00:00 2.2 19 Noroeste 35 Noroeste 1 -- -- 98
2017-12-02 02:00:00 1.2 4 Norte 24 Noroeste 1.6 -- -- 97
2017-12-02 01:00:00 2.4 9 Norte 34 Noroeste 0.4 -- -- 94
2017-12-02 00:00:00 2.1 17 Noroeste 37 Noroeste 0 -- -- 90
2017-12-01 23:00:00 2.2 22 Noroeste 39 Noroeste 0 -- -- 87
2017-12-01 22:00:00 2 10 Noroeste 24 Noroeste 0 -- -- 85
2017-12-01 21:00:00 0.9 9 Noroeste 15 Noroeste 0 -- -- 87
2017-12-01 20:00:00 0.9 4 Norte 21 Noroeste 0 -- -- 85
2017-12-01 19:00:00 1.6 8 Noroeste 21 Noroeste 0 -- -- 88
2017-12-01 18:00:00 2.2 11 Noroeste 31 Noroeste 0 -- -- 84
2017-12-01 17:00:00 3.1 20 Noroeste 37 Noroeste 0 -- -- 82
2017-12-01 16:00:00 3.8 19 Noroeste 41 Noroeste 0 -- -- 80
2017-12-01 15:00:00 4.7 26 Noroeste 40 Noroeste 0 -- -- 71
2017-12-01 14:00:00 5.1 21 Noroeste 36 Noroeste 0 -- -- 69
2017-12-01 13:00:00 4.6 19 Noroeste 39 Noroeste 0 -- -- 77
2017-12-01 12:00:00 2.6 20 Noroeste 35 Noroeste 0 -- -- 90
2017-12-01 11:00:00 1.8 18 Noroeste 29 Noroeste 0.4 -- -- 98
2017-12-01 10:00:00 1.2 13 Norte 57 Norte 1.8 -- -- 97
2017-12-01 09:00:00 5 15 Noroeste 34 Noroeste 0.4 -- -- 90
2017-12-01 08:00:00 5.5 21 Noroeste 43 Noroeste 0 -- -- 83
2017-12-01 07:00:00 6 11 Noroeste 34 Noroeste 0 -- -- 69
2017-12-01 06:00:00 6.3 21 Noroeste 37 Noroeste 0 -- -- 68
2017-12-01 05:00:00 6.2 18 Noroeste 39 Noroeste 0 -- -- 68
2017-12-01 04:00:00 6.3 24 Noroeste 41 Noroeste 0 -- -- 67
2017-12-01 03:00:00 6.4 15 Noroeste 36 Norte 0 -- -- 67
2017-12-01 02:00:00 6.1 20 Noroeste 35 Noroeste 0 -- -- 68
2017-12-01 01:00:00 5.5 11 Noroeste 26 Noroeste 0 -- -- 67
2017-12-01 00:00:00 6 18 Noroeste 32 Noroeste 0 -- -- 67
2017-11-30 23:00:00 5 11 Noroeste 22 Noroeste 0 -- -- 74
2017-11-30 22:00:00 1.4 4 Sudoeste 9 Oeste 0 -- -- 79
2017-11-30 21:00:00 3.5 5 Noroeste 13 Noroeste 0 -- -- 82
2017-11-30 20:00:00 2.9 0 Calma 7 Noroeste 0 -- -- 79
2017-11-30 19:00:00 4.5 4 Norte 23 Noroeste 0 -- -- 78
2017-11-30 18:00:00 6.2 14 Noroeste 31 Noroeste 0 -- -- 72
2017-11-30 17:00:00 8 15 Noroeste 33 Noroeste 0 -- -- 64
2017-11-30 16:00:00 9 22 Noroeste 34 Noroeste 0 -- -- 57
2017-11-30 15:00:00 9.3 18 Noroeste 37 Noroeste 0 -- -- 56
2017-11-30 14:00:00 9.4 22 Noroeste 36 Noroeste 0 -- -- 55
2017-11-30 13:00:00 8.7 19 Noroeste 35 Noroeste 0 -- -- 58
2017-11-30 12:00:00 8.7 19 Noroeste 33 Noroeste 0 -- -- 57
2017-11-30 11:00:00 7.5 22 Noroeste 34 Noroeste 0 -- -- 66
2017-11-30 10:00:00 5 12 Noroeste 24 Noroeste 0 -- -- 83
2017-11-30 09:00:00 1.6 14 Noroeste 22 Noroeste 0 -- -- 96
2017-11-30 08:00:00 0.4 6 Noroeste 14 Noroeste 0 -- -- 95
2017-11-30 07:00:00 0.7 10 Noroeste 17 Norte 0 -- -- 95
2017-11-30 06:00:00 0.7 9 Noroeste 20 Noroeste 0 -- -- 94
2017-11-30 05:00:00 1.5 13 Noroeste 21 Noroeste 0 -- -- 93
2017-11-30 04:00:00 2 13 Noroeste 22 Noroeste 0 -- -- 92
2017-11-30 03:00:00 2.3 15 Noroeste 21 Noroeste 0 -- -- 92
2017-11-30 02:00:00 1.8 5 Norte 15 Norte 0 -- -- 90
2017-11-30 01:00:00 3.2 8 Norte 17 Noroeste 0 -- -- 87
2017-11-30 00:00:00 2.8 11 Noroeste 21 Noroeste 0 -- -- 87
2017-11-29 23:00:00 2.9 13 Norte 26 Noroeste 0 -- -- 88
2017-11-29 22:00:00 3.7 15 Noroeste 31 Noroeste 0 -- -- 83
2017-11-29 21:00:00 3.9 16 Noroeste 25 Noroeste 0 -- -- 84
2017-11-29 20:00:00 5.2 13 Noroeste 24 Noroeste 0 -- -- 78
2017-11-29 19:00:00 6.4 14 Noroeste 25 Norte 0 -- -- 73
2017-11-29 18:00:00 6.9 18 Norte 35 Noroeste 0 -- -- 73
2017-11-29 17:00:00 7.8 20 Noroeste 42 Noroeste 0.2 -- -- 64
2017-11-29 16:00:00 8.4 21 Noroeste 37 Noroeste 0 -- -- 63
2017-11-29 15:00:00 8.9 18 Noroeste 32 Noroeste 0 -- -- 67
2017-11-29 14:00:00 8.2 14 Norte 33 Noroeste 0 -- -- 81
2017-11-29 13:00:00 9.5 21 Noroeste 37 Noroeste 0 -- -- 65
2017-11-29 12:00:00 9.3 14 Noroeste 26 Noroeste 0 -- -- 66
2017-11-29 11:00:00 8 7 Noroeste 15 Noroeste 0 -- -- 74
2017-11-29 10:00:00 6.6 4 Nordeste 13 Oeste 0 -- -- 83
2017-11-29 09:00:00 3.2 6 Noroeste 12 Noroeste 0 -- -- 96
2017-11-29 08:00:00 2.7 2 Oeste 5 Noroeste 0 -- -- 90
2017-11-29 07:00:00 4.3 0 Calma 6 Sudeste 0 -- -- 91
2017-11-29 06:00:00 5 3 Sur 9 Este 0 -- -- 86
2017-11-29 05:00:00 5.7 0 Calma 7 Norte 0 -- -- 84
2017-11-29 04:00:00 5.9 5 Norte 12 Norte 0 -- -- 82
2017-11-29 03:00:00 3.9 2 Nordeste 6 Sudoeste 0 -- -- 87
2017-11-29 02:00:00 2.8 5 Sudoeste 8 Sudoeste 0 -- -- 82
2017-11-29 01:00:00 3.2 2 Oeste 10 Noroeste 0 -- -- 87
2017-11-29 00:00:00 -0.5 2 Sudeste 5 Sudoeste 0 -- -- 95
2017-11-28 23:00:00 -1.8 0 Calma 5 Sudoeste 0 -- -- 87
2017-11-28 22:00:00 -0.9 4 Sudoeste 6 Sudoeste 0 -- -- 83
2017-11-28 21:00:00 0.5 0 Calma 5 Sur 0 -- -- 85
2017-11-28 20:00:00 2.2 3 Sur 10 Sur 0 -- -- 78
2017-11-28 19:00:00 3.3 5 Sur 9 Sur 0 -- -- 70
2017-11-28 18:00:00 7.5 2 Oeste 5 Nordeste 0 -- -- 60
2017-11-28 17:00:00 10.7 4 Nordeste 10 Nordeste 0 -- -- 54
2017-11-28 16:00:00 11.8 5 Norte 13 Norte 0 -- -- 50
2017-11-28 15:00:00 11.5 9 Norte 15 Noroeste 0 -- -- 52
2017-11-28 14:00:00 10.2 9 Norte 15 Norte 0 -- -- 59
2017-11-28 13:00:00 8.3 0 Calma 8 Norte 0 -- -- 63
2017-11-28 12:00:00 6 6 Norte 12 Norte 0 -- -- 73
2017-11-28 11:00:00 3.3 3 Noroeste 7 Noroeste 0 -- -- 87
2017-11-28 10:00:00 -0.3 4 Sudoeste 8 Sur 0 -- -- 99
2017-11-28 09:00:00 -5.4 3 Sudoeste 5 Sudoeste 0 -- -- 97
2017-11-28 08:00:00 -6.4 3 Sur 5 Sudoeste 0 -- -- 95
2017-11-28 07:00:00 -5.9 0 Calma 5 Sur 0 -- -- 95
2017-11-28 06:00:00 -5.3 0 Calma 6 Sudoeste 0 -- -- 95
2017-11-28 05:00:00 -4.8 0 Calma 5 Sudoeste 0 -- -- 95
2017-11-28 04:00:00 -4.1 0 Calma 4 Sudoeste 0 -- -- 96
2017-11-28 03:00:00 -4.6 0 Calma 5 Sudoeste 0 -- -- 95
2017-11-28 02:00:00 -4.2 0 Calma 6 Sur 0 -- -- 94
2017-11-28 01:00:00 -3.9 3 Sur 5 Sur 0 -- -- 93
2017-11-28 00:00:00 -3.7 2 Sudoeste 5 Sudoeste 0 -- -- 90
2017-11-27 23:00:00 -2.2 0 Calma 4 Sur 0 -- -- 88
2017-11-27 22:00:00 -1 3 Sudoeste 4 Sudoeste 0 -- -- 87
2017-11-27 21:00:00 0.2 3 Sur 5 Sur 0 -- -- 82
2017-11-27 20:00:00 1.7 5 Sudoeste 7 Sudoeste 0 -- -- 78
2017-11-27 19:00:00 3.8 4 Sudoeste 6 Oeste 0 -- -- 70
2017-11-27 18:00:00 7.7 2 Oeste 5 Oeste 0 -- -- 63
2017-11-27 17:00:00 9.7 2 Oeste 6 Oeste 0 -- -- 58
2017-11-27 16:00:00 10.3 3 Sudoeste 7 Oeste 0 -- -- 55
2017-11-27 15:00:00 10.2 2 Sudeste 9 Sudeste 0 -- -- 55
2017-11-27 14:00:00 9.6 2 Este 12 Este 0 -- -- 60
2017-11-27 13:00:00 7.9 6 Este 12 Este 0 -- -- 66
2017-11-27 12:00:00 6.4 4 Este 9 Este 0 -- -- 73
2017-11-27 11:00:00 4.9 0 Calma 6 Sur 0 -- -- 83
2017-11-27 10:00:00 0.9 3 Sudoeste 5 Oeste 0 -- -- 98
2017-11-27 09:00:00 -2 3 Sudoeste 6 Sudoeste 0 -- -- 95
2017-11-27 08:00:00 -1.4 4 Sudoeste 6 Sudoeste 0 -- -- 93
2017-11-27 07:00:00 -0.5 5 Sudoeste 12 Noroeste 0 -- -- 91
2017-11-27 06:00:00 1.5 8 Noroeste 17 Norte 0 -- -- 93
2017-11-27 05:00:00 1.2 9 Noroeste 17 Noroeste 0 -- -- 93
2017-11-27 04:00:00 1.5 8 Noroeste 13 Norte 0 -- -- 94
2017-11-27 03:00:00 1.2 5 Norte 14 Noroeste 0 -- -- 93
2017-11-27 02:00:00 1.4 11 Noroeste 17 Noroeste 0 -- -- 94
2017-11-27 01:00:00 1.2 0 Calma 13 Oeste 0 -- -- 89
2017-11-27 00:00:00 2.6 8 Noroeste 15 Noroeste 0 -- -- 87
2017-11-26 23:00:00 3.6 7 Noroeste 13 Noroeste 0 -- -- 85
2017-11-26 22:00:00 4.4 10 Noroeste 15 Noroeste 0 -- -- 84
2017-11-26 21:00:00 5 9 Noroeste 17 Noroeste 0 -- -- 80
2017-11-26 20:00:00 5.4 10 Noroeste 14 Noroeste 0 -- -- 79
2017-11-26 19:00:00 7.2 7 Noroeste 19 Noroeste 0 -- -- 72
2017-11-26 18:00:00 8.8 13 Noroeste 23 Noroeste 0 -- -- 67
2017-11-26 17:00:00 9.7 14 Noroeste 27 Noroeste 0 -- -- 66
2017-11-26 16:00:00 9.7 13 Norte 35 Norte 0 -- -- 69
2017-11-26 15:00:00 11.1 24 Noroeste 38 Noroeste 0 -- -- 60
2017-11-26 14:00:00 11 22 Noroeste 39 Noroeste 0 -- -- 58
2017-11-26 13:00:00 11.9 19 Noroeste 35 Noroeste 0 -- -- 54
2017-11-26 12:00:00 10.5 19 Noroeste 32 Norte 0 -- -- 62
2017-11-26 11:00:00 7.6 9 Norte 15 Norte 0 -- -- 79
2017-11-26 10:00:00 6.3 8 Noroeste 15 Noroeste 0 -- -- 85
2017-11-26 09:00:00 4.4 6 Norte 14 Noroeste 0 -- -- 90
2017-11-26 08:00:00 3.8 9 Noroeste 18 Norte 0 -- -- 91
2017-11-26 07:00:00 3.6 10 Noroeste 17 Noroeste 0 -- -- 90
2017-11-26 06:00:00 3.3 3 Oeste 14 Noroeste 0 -- -- 89
2017-11-26 05:00:00 3.2 9 Noroeste 13 Noroeste 0 -- -- 91
2017-11-26 04:00:00 4.4 7 Norte 16 Norte 0 -- -- 87
2017-11-26 03:00:00 4.6 9 Noroeste 18 Noroeste 0 -- -- 87
2017-11-26 02:00:00 4.2 12 Noroeste 21 Noroeste 0 -- -- 90
2017-11-26 01:00:00 3.5 7 Noroeste 17 Noroeste 0 -- -- 92
2017-11-26 00:00:00 3.5 7 Noroeste 16 Noroeste 0 -- -- 89
2017-11-25 23:00:00 3.9 7 Noroeste 15 Noroeste 0 -- -- 85
2017-11-25 22:00:00 5.4 9 Noroeste 17 Noroeste 0 -- -- 81
2017-11-25 21:00:00 6.7 11 Noroeste 24 Norte 0 -- -- 75
2017-11-25 20:00:00 8.3 13 Noroeste 27 Noroeste 0 -- -- 70
2017-11-25 19:00:00 8.7 12 Noroeste 27 Noroeste 0 -- -- 70
2017-11-25 18:00:00 9.2 15 Noroeste 34 Norte 0 -- -- 68
2017-11-25 17:00:00 10.1 15 Norte 37 Noroeste 0 -- -- 69
2017-11-25 16:00:00 10.8 25 Norte 40 Noroeste 0 -- -- 64
2017-11-25 15:00:00 11.2 19 Noroeste 37 Noroeste 0 -- -- 64
2017-11-25 14:00:00 11.8 20 Noroeste 42 Noroeste 0 -- -- 68
2017-11-25 13:00:00 12 19 Noroeste 41 Noroeste 0 -- -- 77
2017-11-25 12:00:00 11.6 16 Noroeste 36 Noroeste 0 -- -- 82
2017-11-25 11:00:00 11.2 15 Noroeste 27 Noroeste 0 -- -- 89
2017-11-25 10:00:00 10.2 9 Noroeste 28 Noroeste 0 -- -- 93
2017-11-25 09:00:00 10.4 16 Noroeste 35 Noroeste 0 -- -- 96
2017-11-25 08:00:00 10.1 9 Noroeste 16 Noroeste 0 -- -- 96
2017-11-25 07:00:00 10 5 Noroeste 17 Noroeste 0 -- -- 97
2017-11-25 06:00:00 10.1 9 Noroeste 21 Noroeste 0 -- -- 97
2017-11-25 05:00:00 10.3 13 Noroeste 31 Noroeste 1.6 -- -- 97
2017-11-25 04:00:00 9.4 18 Noroeste 38 Noroeste 0 -- -- 94
2017-11-25 03:00:00 8.9 5 Norte 14 Norte 0 -- -- 93
2017-11-25 02:00:00 8.6 3 Sudoeste 9 Noroeste 0 -- -- 92
2017-11-25 01:00:00 8.8 3 Norte 11 Noroeste 0 -- -- 88
2017-11-25 00:00:00 10.2 3 Oeste 16 Noroeste 0 -- -- 85
2017-11-24 23:00:00 10.9 5 Noroeste 19 Sudoeste 0 -- -- 83
2017-11-24 22:00:00 14.7 10 Sur 27 Sudoeste 0 -- -- 69
2017-11-24 21:00:00 10.4 3 Nordeste 14 Norte 0 -- -- 84
2017-11-24 20:00:00 10.5 4 Sur 13 Este 0 -- -- 82
2017-11-24 19:00:00 9.5 4 Sur 10 Sudoeste 0 -- -- 85
2017-11-24 18:00:00 11 2 Oeste 6 Sudoeste 0 -- -- 82
2017-11-24 17:00:00 11.6 4 Nordeste 9 Nordeste 0 -- -- 81
2017-11-24 16:00:00 11.5 5 Norte 20 Noroeste 0 -- -- 77
2017-11-24 15:00:00 11.1 8 Noroeste 15 Noroeste 0.2 -- -- 84
2017-11-24 14:00:00 11.3 8 Noroeste 12 Noroeste 0 -- -- 75
2017-11-24 13:00:00 11 5 Noroeste 10 Noroeste 0 -- -- 76
2017-11-24 12:00:00 10.8 3 Noroeste 14 Noroeste 0 -- -- 76
2017-11-24 11:00:00 10.4 6 Norte 12 Noroeste 0 -- -- 78
2017-11-24 10:00:00 10.2 6 Noroeste 13 Noroeste 0 -- -- 77
2017-11-24 09:00:00 11.6 11 Sudeste 18 Sudeste 0 -- -- 60
2017-11-24 08:00:00 11.4 10 Sur 15 Sudeste 0 -- -- 60
2017-11-24 07:00:00 8.9 8 Sur 14 Sudoeste 0 -- -- 75
2017-11-24 06:00:00 8.9 4 Sur 15 Noroeste 0 -- -- 77
2017-11-24 05:00:00 9.7 4 Norte 13 Norte 0 -- -- 72
2017-11-24 04:00:00 10.6 6 Noroeste 23 Noroeste 0 -- -- 67
2017-11-24 03:00:00 13.1 18 Sudeste 28 Sudeste 0 -- -- 51
2017-11-24 02:00:00 14.4 15 Sudeste 24 Sudeste 0 -- -- 46
2017-11-24 01:00:00 14.9 14 Sur 37 Sudoeste 0 -- -- 43
2017-11-24 00:00:00 13 28 Sudoeste 35 Sudoeste 0 -- -- 50
2017-11-23 23:00:00 11.4 7 Sudeste 23 Sudeste 0 -- -- 56
2017-11-23 22:00:00 12.9 15 Sudeste 24 Sudeste 0 -- -- 51
2017-11-23 21:00:00 10 6 Nordeste 9 Nordeste 0 -- -- 66
2017-11-23 20:00:00 10.8 6 Sudeste 18 Sudeste 0 -- -- 63
2017-11-23 19:00:00 9.8 5 Sudeste 9 Sudoeste 0 -- -- 69
2017-11-23 18:00:00 11.8 3 Oeste 8 Sudoeste 0 -- -- 62
2017-11-23 17:00:00 15.5 2 Nordeste 10 Este 0 -- -- 56
2017-11-23 16:00:00 16.8 4 Nordeste 14 Sudeste 0 -- -- 51
2017-11-23 15:00:00 17.4 6 Este 14 Este 0 -- -- 48
2017-11-23 14:00:00 17.8 13 Sudeste 30 Sudeste 0 -- -- 47
2017-11-23 13:00:00 16.3 15 Sudeste 23 Sudeste 0 -- -- 52
2017-11-23 12:00:00 15 15 Sudeste 24 Sur 0 -- -- 57
2017-11-23 11:00:00 11.2 8 Sudeste 22 Sudeste 0 -- -- 71
2017-11-23 10:00:00 10.4 3 Oeste 16 Sudeste 0 -- -- 71
2017-11-23 09:00:00 8.2 8 Este 18 Sur 0 -- -- 83
2017-11-23 08:00:00 7.4 9 Sur 22 Sudeste 0 -- -- 81
2017-11-23 07:00:00 7.6 18 Sudeste 31 Sudeste 0 -- -- 79
2017-11-23 06:00:00 8.4 20 Sudeste 35 Sudeste 0 -- -- 77
2017-11-23 05:00:00 8.6 24 Sudeste 35 Sudeste 0 -- -- 72
2017-11-23 04:00:00 8.1 7 Sudeste 25 Sudeste 0 -- -- 66
2017-11-23 03:00:00 9.2 14 Sudeste 40 Sudeste 0 -- -- 59
2017-11-23 02:00:00 9.2 22 Sudeste 37 Sudeste 0 -- -- 57
2017-11-23 01:00:00 9.4 20 Sudeste 33 Sudeste 0 -- -- 56
2017-11-23 00:00:00 9.8 17 Sudeste 30 Sudeste 0 -- -- 55
2017-11-22 23:00:00 9.2 21 Sudeste 34 Sudeste 0 -- -- 58
2017-11-22 22:00:00 8 22 Sudeste 32 Sudeste 0 -- -- 62
2017-11-22 21:00:00 3.7 4 Sudoeste 14 Sur 0 -- -- 70
2017-11-22 20:00:00 3.4 6 Sudoeste 8 Oeste 0 -- -- 70
2017-11-22 19:00:00 4.9 2 Oeste 10 Oeste 0 -- -- 56
2017-11-22 18:00:00 8.7 4 Nordeste 8 Sur 0 -- -- 56
2017-11-22 17:00:00 14 6 Sur 15 Sudeste 0 -- -- 41
2017-11-22 16:00:00 15 5 Sur 19 Sudeste 0 -- -- 39
2017-11-22 15:00:00 14.2 7 Sudeste 18 Sudeste 0 -- -- 39
2017-11-22 14:00:00 12.5 9 Este 15 Este 0 -- -- 45
2017-11-22 13:00:00 10.2 4 Sudeste 10 Sudeste 0 -- -- 53
2017-11-22 12:00:00 7.3 2 Este 6 Este 0 -- -- 64
2017-11-22 11:00:00 4.8 0 Calma 5 Noroeste 0 -- -- 74
2017-11-22 10:00:00 0.9 0 Calma 3 Oeste 0 -- -- 90
2017-11-22 09:00:00 -4.9 0 Calma 3 Noroeste 0 -- -- 94
2017-11-22 08:00:00 -5.2 2 Sudoeste 4 Sur 0 -- -- 93
2017-11-22 07:00:00 -5.5 3 Sur 5 Sur 0 -- -- 90
2017-11-22 06:00:00 -5 0 Calma 4 Sudeste 0 -- -- 91
2017-11-22 05:00:00 -4.4 2 Oeste 7 Oeste 0 -- -- 91
2017-11-22 04:00:00 -4.3 3 Sudoeste 6 Sudoeste 0 -- -- 88
2017-11-22 03:00:00 -3.6 2 Sur 5 Sur 0 -- -- 88
2017-11-22 02:00:00 -2.6 3 Sudoeste 8 Noroeste 0 -- -- 90
2017-11-22 01:00:00 -3.2 0 Calma 4 Sur 0 -- -- 82
2017-11-22 00:00:00 -2.3 0 Calma 6 Sudeste 0 -- -- 77
2017-11-21 23:00:00 -1.4 2 Sur 5 Sur 0 -- -- 80
2017-11-21 22:00:00 -0.4 3 Sudoeste 6 Sur 0 -- -- 76
2017-11-21 21:00:00 0.7 3 Sudoeste 5 Sur 0 -- -- 69
2017-11-21 20:00:00 2.8 4 Sur 5 Sur 0 -- -- 65
2017-11-21 19:00:00 5.7 3 Sudoeste 6 Sudoeste 0 -- -- 56
2017-11-21 18:00:00 10.9 6 Sudeste 10 Este 0 -- -- 49
2017-11-21 17:00:00 14.3 7 Este 9 Este 0 -- -- 42
2017-11-21 16:00:00 16.2 2 Este 6 Sudeste 0 -- -- 35
2017-11-21 15:00:00 16.1 0 Calma 6 Sudeste 0 -- -- 34
2017-11-21 14:00:00 13.6 0 Calma 8 Sudeste 0 -- -- 44
2017-11-21 13:00:00 11.5 3 Norte 5 Noroeste 0 -- -- 53
2017-11-21 12:00:00 9 2 Nordeste 6 Nordeste 0 -- -- 63
2017-11-21 11:00:00 6.5 3 Noroeste 6 Noroeste 0 -- -- 69
2017-11-21 10:00:00 2.6 0 Calma 2 Sudoeste 0 -- -- 82
2017-11-21 09:00:00 -4.1 2 Sudoeste 5 Sudoeste 0 -- -- 91
2017-11-21 08:00:00 -5.1 2 Sudoeste 3 Sudoeste 0 -- -- 86
2017-11-21 07:00:00 -4.8 0 Calma 5 Sudoeste 0 -- -- 87
2017-11-21 06:00:00 -4.5 0 Calma 5 Sudoeste 0 -- -- 88
2017-11-21 05:00:00 -3.8 0 Calma 5 Sudoeste 0 -- -- 89
2017-11-21 04:00:00 -3.8 3 Sudoeste 4 Sudoeste 0 -- -- 81
2017-11-21 03:00:00 -3.1 0 Calma 4 Sudoeste 0 -- -- 79
2017-11-21 02:00:00 -1.9 0 Calma 2 Sur 0 -- -- 85
2017-11-21 01:00:00 -1.6 2 Sudoeste 5 Sudoeste 0 -- -- 79
2017-11-21 00:00:00 -1.2 3 Sudoeste 4 Sudoeste 0 -- -- 77
2017-11-20 23:00:00 -0.3 2 Sudoeste 4 Sudoeste 0 -- -- 77
2017-11-20 22:00:00 1 3 Sudoeste 4 Sudoeste 0 -- -- 71
2017-11-20 21:00:00 2.5 0 Calma 4 Sur 0 -- -- 65
2017-11-20 20:00:00 4.1 2 Sudoeste 4 Sudoeste 0 -- -- 65
2017-11-20 19:00:00 7.1 4 Sudoeste 7 Sudoeste 0 -- -- 54
2017-11-20 18:00:00 12.7 0 Calma 4 Sudeste 0 -- -- 44
2017-11-20 17:00:00 16.4 2 Sudeste 3 Sudeste 0 -- -- 39
2017-11-20 16:00:00 16.5 3 Este 9 Noroeste 0 -- -- 33
2017-11-20 15:00:00 16 4 Noroeste 10 Norte 0 -- -- 35
2017-11-20 14:00:00 14.5 3 Norte 9 Nordeste -- -- -- 39
2017-11-20 13:00:00 -- -- -- -- -- -- -- -- --
2017-11-20 12:00:00 -- -- -- -- -- -- -- -- --
2017-11-20 11:00:00 -- -- -- -- -- -- -- -- --
2017-11-20 10:00:00 4.4 0 Calma 4 Sudoeste 0 -- -- 69
2017-11-20 09:00:00 -2 3 Sur 4 Sur 0 -- -- 85
2017-11-20 08:00:00 -3 0 Calma 4 Sudoeste 0 -- -- 84
2017-11-20 07:00:00 -2.4 3 Sudoeste 4 Sur 0 -- -- 80
2017-11-20 06:00:00 -1.8 2 Sudeste 5 Oeste 0 -- -- 84
2017-11-20 05:00:00 -2 6 Oeste 8 Oeste 0 -- -- 76
2017-11-20 04:00:00 -0.6 0 Calma 6 Sudoeste 0 -- -- 76
2017-11-20 03:00:00 1.6 3 Sur 8 Sur 0 -- -- 66
2017-11-20 02:00:00 3.9 5 Oeste 14 Noroeste 0 -- -- 63
2017-11-20 01:00:00 3.2 5 Noroeste 13 Noroeste 0 -- -- 67
2017-11-20 00:00:00 4.5 6 Noroeste 16 Noroeste 0 -- -- 65
2017-11-19 23:00:00 6.7 10 Noroeste 18 Noroeste 0 -- -- 60
2017-11-19 22:00:00 6.6 9 Noroeste 14 Noroeste 0 -- -- 58
2017-11-19 21:00:00 8 10 Noroeste 17 Noroeste 0 -- -- 52
2017-11-19 20:00:00 8.4 11 Noroeste 18 Noroeste 0 -- -- 48
2017-11-19 19:00:00 9.5 4 Noroeste 10 Oeste 0 -- -- 40
2017-11-19 18:00:00 13 2 Noroeste 23 Noroeste 0 -- -- 34
2017-11-19 17:00:00 16.4 19 Noroeste 29 Noroeste 0 -- -- 26
2017-11-19 16:00:00 17.5 18 Noroeste 29 Norte 0 -- -- 24
2017-11-19 15:00:00 17.9 18 Noroeste 27 Norte 0 -- -- 21
2017-11-19 14:00:00 16.8 14 Norte 24 Norte 0 -- -- 32
2017-11-19 13:00:00 14.8 12 Norte 21 Norte 0 -- -- 39
2017-11-19 12:00:00 11.2 12 Norte 22 Noroeste 0 -- -- 56
2017-11-19 11:00:00 8.4 11 Noroeste 21 Oeste 0 -- -- 67
2017-11-19 10:00:00 5.5 11 Noroeste 19 Noroeste 0 -- -- 86
2017-11-19 09:00:00 1.7 5 Oeste 12 Noroeste 0 -- -- 96
2017-11-19 08:00:00 1.8 8 Noroeste 15 Oeste 0 -- -- 97
2017-11-19 07:00:00 -0.1 4 Oeste 9 Oeste 0 -- -- 92
2017-11-19 06:00:00 1.8 7 Oeste 17 Noroeste 0 -- -- 88
2017-11-19 05:00:00 4.2 13 Noroeste 20 Noroeste 0 -- -- 95
2017-11-19 04:00:00 2.9 6 Noroeste 14 Noroeste 0 -- -- 93
2017-11-19 03:00:00 4.1 9 Oeste 17 Noroeste 0 -- -- 93
2017-11-19 02:00:00 5.4 9 Noroeste 24 Noroeste 0 -- -- 90
2017-11-19 01:00:00 6.1 15 Noroeste 24 Noroeste 0 -- -- 91
2017-11-19 00:00:00 5.8 7 Oeste 23 Noroeste 0 -- -- 84
2017-11-18 23:00:00 7.1 13 Noroeste 22 Noroeste 0 -- -- 84
2017-11-18 22:00:00 7.6 11 Noroeste 20 Noroeste 0 -- -- 82
2017-11-18 21:00:00 7.9 10 Noroeste 15 Noroeste 0 -- -- 78
2017-11-18 20:00:00 9.4 10 Noroeste 18 Noroeste 0 -- -- 71
2017-11-18 19:00:00 10.8 12 Noroeste 23 Noroeste 0 -- -- 66
2017-11-18 18:00:00 12.5 13 Noroeste 27 Noroeste 0 -- -- 59
2017-11-18 17:00:00 15 17 Noroeste 38 Noroeste 0 -- -- 51
2017-11-18 16:00:00 16.2 23 Noroeste 40 Noroeste 0 -- -- 50
2017-11-18 15:00:00 16.8 23 Noroeste 44 Noroeste 0 -- -- 49
2017-11-18 14:00:00 16.3 26 Noroeste 40 Noroeste 0 -- -- 51
2017-11-18 13:00:00 15.8 24 Noroeste 42 Noroeste 0 -- -- 52
2017-11-18 12:00:00 14.5 23 Noroeste 39 Noroeste 0 -- -- 56
2017-11-18 11:00:00 12.7 26 Noroeste 38 Noroeste 0 -- -- 61
2017-11-18 10:00:00 10.2 15 Noroeste 35 Noroeste 0 -- -- 71
2017-11-18 09:00:00 6.8 11 Noroeste 30 Norte 0 -- -- 85
2017-11-18 08:00:00 5.9 17 Noroeste 27 Noroeste 0 -- -- 89
2017-11-18 07:00:00 6.4 19 Noroeste 28 Noroeste 0 -- -- 88
2017-11-18 06:00:00 6.8 19 Noroeste 30 Noroeste 0 -- -- 87
2017-11-18 05:00:00 6.9 13 Noroeste 32 Noroeste 0 -- -- 87
2017-11-18 04:00:00 7.2 19 Norte 35 Noroeste 0 -- -- 86
2017-11-18 03:00:00 8.1 21 Noroeste 32 Norte 0 -- -- 82
2017-11-18 02:00:00 8.4 18 Noroeste 36 Noroeste 0 -- -- 80
2017-11-18 01:00:00 9 21 Noroeste 34 Noroeste 0 -- -- 77
2017-11-18 00:00:00 9.9 17 Noroeste 28 Noroeste 0 -- -- 71
2017-11-17 23:00:00 10.3 19 Noroeste 31 Noroeste 0 -- -- 69
2017-11-17 22:00:00 10.3 15 Noroeste 24 Noroeste 0 -- -- 63
2017-11-17 21:00:00 10.6 9 Noroeste 21 Noroeste 0 -- -- 58
2017-11-17 20:00:00 11.9 14 Noroeste 24 Noroeste 0 -- -- 50
2017-11-17 19:00:00 13.1 14 Noroeste 21 Norte 0 -- -- 45
2017-11-17 18:00:00 14.4 5 Noroeste 13 Norte 0 -- -- 40
2017-11-17 17:00:00 17.8 9 Norte 28 Noroeste 0 -- -- 34
2017-11-17 16:00:00 19.5 18 Noroeste 28 Norte 0 -- -- 30
2017-11-17 15:00:00 19.8 16 Noroeste 30 Norte 0 -- -- 29
2017-11-17 14:00:00 19.5 14 Noroeste 28 Noroeste 0 -- -- 30
2017-11-17 13:00:00 18.2 18 Noroeste 30 Noroeste 0 -- -- 32
2017-11-17 12:00:00 15.8 17 Noroeste 24 Noroeste 0 -- -- 41
2017-11-17 11:00:00 12.2 7 Noroeste 13 Noroeste 0 -- -- 52
2017-11-17 10:00:00 9.8 6 Noroeste 19 Noroeste 0 -- -- 61
2017-11-17 09:00:00 1.2 4 Sudoeste 7 Sudoeste 0 -- -- 91
2017-11-17 08:00:00 -0.5 4 Oeste 8 Sudoeste 0 -- -- 83
2017-11-17 07:00:00 0 5 Sudoeste 8 Sudoeste 0 -- -- 82
2017-11-17 06:00:00 1.8 5 Sudoeste 9 Oeste 0 -- -- 76
2017-11-17 05:00:00 4.8 3 Noroeste 10 Norte 0 -- -- 76
2017-11-17 04:00:00 5.6 3 Noroeste 6 Noroeste 0 -- -- 70
2017-11-17 03:00:00 7.9 2 Este 22 Norte 0 -- -- 64
2017-11-17 02:00:00 8.9 15 Noroeste 27 Noroeste 0 -- -- 60
2017-11-17 01:00:00 9.1 14 Noroeste 24 Noroeste 0 -- -- 59
2017-11-17 00:00:00 9.2 13 Noroeste 24 Noroeste 0 -- -- 59
2017-11-16 23:00:00 9 10 Noroeste 22 Noroeste 0 -- -- 58
2017-11-16 22:00:00 9.7 14 Noroeste 20 Noroeste 0 -- -- 53
2017-11-16 21:00:00 6 4 Noroeste 10 Noroeste 0 -- -- 67
2017-11-16 20:00:00 4.6 3 Oeste 8 Oeste 0 -- -- 69
2017-11-16 19:00:00 6.4 3 Oeste 8 Oeste 0 -- -- 55
2017-11-16 18:00:00 12.1 0 Calma 6 Sudeste 0 -- -- 43
2017-11-16 17:00:00 15.6 5 Sudeste 9 Sudeste 0 -- -- 40
2017-11-16 16:00:00 15.9 8 Sudeste 14 Este 0 -- -- 38
2017-11-16 15:00:00 14.6 6 Este 12 Sudeste 0 -- -- 40
2017-11-16 14:00:00 14 3 Este 10 Norte 0 -- -- 42
2017-11-16 13:00:00 -- -- -- -- -- -- -- -- --
2017-11-16 12:00:00 -- -- -- -- -- -- -- -- --
2017-11-16 11:00:00 7.8 2 Norte 6 Nordeste 0.4 -- -- 61
2017-11-16 10:00:00 4 2 Oeste 5 Norte 0 -- -- 75
2017-11-16 09:00:00 -2.5 3 Sudoeste 5 Sudoeste 0 -- -- 92
2017-11-16 08:00:00 -4.1 2 Sur 5 Sudoeste 0 -- -- 91
2017-11-16 07:00:00 -4.8 3 Sudoeste 5 Sudoeste 0 -- -- 83
2017-11-16 06:00:00 -4 0 Calma 3 Sudoeste 0 -- -- 85
2017-11-16 05:00:00 -3.5 2 Sudoeste 4 Oeste 0 -- -- 83
2017-11-16 04:00:00 -3 2 Sudoeste 4 Oeste 0 -- -- 83
2017-11-16 03:00:00 -2.2 0 Calma 5 Sudeste 0 -- -- 83
2017-11-16 02:00:00 -1.5 0 Calma 4 Este 0 -- -- 84
2017-11-16 01:00:00 -0.7 3 Este 6 Sudoeste 0 -- -- 85
2017-11-16 00:00:00 -0.2 4 Sudoeste 6 Sudoeste 0 -- -- 76
2017-11-15 23:00:00 0.2 5 Sudoeste 9 Sur 0 -- -- 74
2017-11-15 22:00:00 0.7 4 Sudoeste 9 Sudoeste 0 -- -- 71
2017-11-15 21:00:00 2.2 4 Sur 9 Sur 0 -- -- 70
2017-11-15 20:00:00 4 4 Sur 8 Sur 0 -- -- 57
2017-11-15 19:00:00 6.6 2 Oeste 9 Sudoeste 0 -- -- 52
2017-11-15 18:00:00 11.6 5 Sur 8 Sur 0 -- -- 40
2017-11-15 17:00:00 15.3 6 Sudoeste 9 Sudoeste 0 -- -- 37
2017-11-15 16:00:00 15.9 3 Sudeste 8 Oeste 0 -- -- 33
2017-11-15 15:00:00 14.1 4 Noroeste 12 Norte 0 -- -- 35
2017-11-15 14:00:00 13.1 4 Norte 11 Noroeste 0 -- -- 40
2017-11-15 13:00:00 11.5 6 Oeste 15 Noroeste 0 -- -- 43
2017-11-15 12:00:00 9.8 6 Noroeste 13 Noroeste 0 -- -- 51
2017-11-15 11:00:00 6.9 6 Noroeste 13 Noroeste 0 -- -- 61
2017-11-15 10:00:00 4.7 8 Noroeste 13 Noroeste 0 -- -- 77
2017-11-15 09:00:00 -1.5 0 Calma 5 Sudoeste 0 -- -- 93
2017-11-15 08:00:00 -3.4 4 Sudoeste 8 Sudoeste 0 -- -- 89
2017-11-15 07:00:00 -1.9 5 Sudoeste 8 Sudoeste 0 -- -- 82
2017-11-15 06:00:00 0.6 3 Sudoeste 12 Noroeste 0 -- -- 86
2017-11-15 05:00:00 1.2 8 Noroeste 14 Noroeste 0 -- -- 88
2017-11-15 04:00:00 1.7 7 Noroeste 14 Noroeste 0 -- -- 84
2017-11-15 03:00:00 2.9 8 Noroeste 19 Norte 0 -- -- 82
2017-11-15 02:00:00 3.6 12 Noroeste 21 Noroeste 0 -- -- 78
2017-11-15 01:00:00 4.2 12 Noroeste 22 Noroeste 0 -- -- 74
2017-11-15 00:00:00 4.4 12 Norte 31 Norte 0 -- -- 71